Time;durP1;ratioP1;P1;durP2;ratioP2;P2;SDS_P1;SDS_P2;PMS_P1;PMS_P2;Temp;Humidity;BMP_temperature;BMP_pressure;BME280_temperature;BME280_humidity;BME280_pressure;Samples;Min_cycle;Max_cycle;Signal;HPM_P1;HPM_P2
2023/06/20 00:00:47;;;;;;;5.40;3.23;;;21.80;99.90;;;;;;5033899;28;20454;-83
2023/06/20 00:03:14;;;;;;;5.77;3.37;;;21.90;99.90;;;;;;5033610;28;20438;-82
2023/06/20 00:05:41;;;;;;;3.23;3.03;;;21.80;99.90;;;;;;5033553;28;20452;-82
2023/06/20 00:08:08;;;;;;;3.27;2.53;;;21.90;99.90;;;;;;5033754;28;20462;-82
2023/06/20 00:10:36;;;;;;;3.33;3.00;;;21.80;99.90;;;;;;5033739;28;20445;-82
2023/06/20 00:13:03;;;;;;;3.43;3.10;;;21.70;99.90;;;;;;5033589;28;20458;-82
2023/06/20 00:15:30;;;;;;;4.83;2.40;;;21.60;99.90;;;;;;5033425;28;20441;-82
2023/06/20 00:17:59;;;;;;;3.40;3.10;;;21.60;99.90;;;;;;5033175;28;20498;-82
2023/06/20 00:20:26;;;;;;;3.30;2.83;;;21.70;99.90;;;;;;5033668;28;20461;-82
2023/06/20 00:22:53;;;;;;;3.80;3.17;;;21.70;99.90;;;;;;5033830;28;20450;-82
2023/06/20 00:25:20;;;;;;;3.67;2.80;;;21.60;99.90;;;;;;5033502;28;20446;-82
2023/06/20 00:27:48;;;;;;;9.13;3.27;;;21.50;99.90;;;;;;5033088;28;20482;-84
2023/06/20 00:30:15;;;;;;;5.63;3.33;;;21.40;99.90;;;;;;5032898;28;20946;-84
2023/06/20 00:32:42;;;;;;;5.27;3.30;;;21.00;99.90;;;;;;5032879;28;20504;-85
2023/06/20 00:35:09;;;;;;;4.07;3.10;;;20.70;99.90;;;;;;5033117;28;20449;-84
2023/06/20 00:37:38;;;;;;;4.20;3.03;;;20.20;99.90;;;;;;5033003;28;20482;-83
2023/06/20 00:40:06;;;;;;;3.67;2.97;;;19.80;99.90;;;;;;5033326;28;20454;-82
2023/06/20 00:42:33;;;;;;;5.67;4.40;;;19.60;99.90;;;;;;5033623;28;20447;-83
2023/06/20 00:45:01;;;;;;;5.23;3.03;;;19.50;99.90;;;;;;5033343;28;20457;-83
2023/06/20 00:47:28;;;;;;;5.40;3.17;;;19.30;99.90;;;;;;5032946;28;20500;-83
2023/06/20 00:49:56;;;;;;;3.57;2.83;;;19.30;99.90;;;;;;5032972;28;20457;-83
2023/06/20 00:52:23;;;;;;;5.00;3.37;;;19.20;99.90;;;;;;5033212;28;20450;-83
2023/06/20 00:54:50;;;;;;;6.20;3.73;;;19.10;99.90;;;;;;5033217;28;20446;-83
2023/06/20 00:57:18;;;;;;;6.67;2.57;;;18.90;99.90;;;;;;5032763;28;20486;-83
2023/06/20 00:59:46;;;;;;;4.77;2.80;;;18.90;99.90;;;;;;5033195;28;20455;-82
2023/06/20 01:02:15;;;;;;;2.90;1.97;;;18.80;99.90;;;;;;5033161;28;20457;-83
2023/06/20 01:04:44;;;;;;;11.30;3.20;;;18.80;99.90;;;;;;5033030;28;20822;-82
2023/06/20 01:07:17;;;;;;;3.50;2.67;;;18.80;99.90;;;;;;5032710;28;20864;-83
2023/06/20 01:09:55;;;;;;;3.80;2.00;;;18.70;99.90;;;;;;5032781;28;20919;-82
2023/06/20 01:12:31;;;;;;;4.33;2.93;;;18.60;99.90;;;;;;5032789;28;20910;-82
2023/06/20 01:15:07;;;;;;;7.23;2.90;;;18.60;99.90;;;;;;5033741;28;20844;-82
2023/06/20 01:17:43;;;;;;;2.70;2.33;;;18.60;99.90;;;;;;5032578;28;20852;-82
2023/06/20 01:20:15;;;;;;;3.67;2.27;;;18.50;99.90;;;;;;5032759;28;20422;-82
2023/06/20 01:22:56;;;;;;;2.83;2.10;;;18.60;99.90;;;;;;5033004;28;20435;-82
2023/06/20 01:25:31;;;;;;;2.70;2.47;;;18.60;99.90;;;;;;5032965;28;20430;-81
2023/06/20 01:28:05;;;;;;;3.90;2.63;;;18.50;99.90;;;;;;5032692;28;21013;-82
2023/06/20 01:30:46;;;;;;;3.30;2.20;;;18.40;99.90;;;;;;5032978;28;20435;-82
2023/06/20 01:33:15;;;;;;;2.40;1.33;;;18.50;99.90;;;;;;5032897;28;20431;-82
2023/06/20 01:35:45;;;;;;;3.53;2.07;;;18.40;99.90;;;;;;5032607;28;20534;-81
2023/06/20 01:38:15;;;;;;;2.17;2.07;;;18.40;99.90;;;;;;5032669;28;20577;-82
2023/06/20 01:40:47;;;;;;;3.20;2.13;;;18.40;99.90;;;;;;5032845;28;20439;-80
2023/06/20 01:43:15;;;;;;;2.47;1.90;;;18.30;99.90;;;;;;5035301;28;20435;-80
2023/06/20 01:45:45;;;;;;;2.30;2.00;;;18.20;99.90;;;;;;5036410;28;20442;-81
2023/06/20 01:48:13;;;;;;;5.43;2.27;;;18.10;99.90;;;;;;5036087;28;20469;-80
2023/06/20 01:50:41;;;;;;;3.97;2.30;;;18.10;99.90;;;;;;5036466;28;20458;-81
2023/06/20 01:53:09;;;;;;;3.87;2.40;;;18.10;99.90;;;;;;5036060;28;20796;-81
2023/06/20 01:55:41;;;;;;;4.93;2.07;;;18.10;99.90;;;;;;5036106;28;20431;-81
2023/06/20 01:58:09;;;;;;;2.63;2.37;;;18.00;99.90;;;;;;5036066;28;20497;-81
2023/06/20 02:00:37;;;;;;;5.60;1.70;;;18.00;99.90;;;;;;5036014;28;20461;-81
2023/06/20 02:03:05;;;;;;;4.00;1.60;;;18.10;99.90;;;;;;5035852;28;20953;-81
2023/06/20 02:05:33;;;;;;;5.33;2.40;;;18.10;99.90;;;;;;5036048;28;20526;-81
2023/06/20 02:08:01;;;;;;;2.33;2.13;;;18.10;99.90;;;;;;5035701;28;20975;-81
2023/06/20 02:10:28;;;;;;;1.73;1.60;;;18.10;99.90;;;;;;5035951;28;20466;-81
2023/06/20 02:12:58;;;;;;;3.00;1.57;;;18.00;99.90;;;;;;5035916;28;20500;-81
2023/06/20 02:15:27;;;;;;;3.43;2.40;;;18.00;99.90;;;;;;5035606;28;20439;-81
2023/06/20 02:17:55;;;;;;;2.13;1.53;;;18.00;99.90;;;;;;5035714;28;20537;-81
2023/06/20 02:20:22;;;;;;;3.53;2.30;;;18.00;99.90;;;;;;5035765;28;20454;-81
2023/06/20 02:22:51;;;;;;;4.47;1.63;;;18.00;99.90;;;;;;5035419;28;20458;-81
2023/06/20 02:25:21;;;;;;;4.37;1.77;;;18.00;99.90;;;;;;5035553;28;20459;-81
2023/06/20 02:27:51;;;;;;;1.90;1.60;;;18.00;99.90;;;;;;5035347;28;20528;-81
2023/06/20 02:30:25;;;;;;;5.10;1.93;;;18.00;99.90;;;;;;5035687;28;20431;-81
2023/06/20 02:32:56;;;;;;;2.47;1.97;;;18.00;99.90;;;;;;5035553;28;20407;-81
2023/06/20 02:35:24;;;;;;;1.80;1.53;;;18.00;99.90;;;;;;5035334;28;20411;-81
2023/06/20 02:37:53;;;;;;;1.63;1.37;;;18.00;99.90;;;;;;5035359;28;20517;-81
2023/06/20 02:40:23;;;;;;;2.53;2.00;;;18.10;99.90;;;;;;5034999;28;20836;-81
2023/06/20 02:42:50;;;;;;;5.80;1.87;;;18.10;99.90;;;;;;5035122;28;20477;-81
2023/06/20 02:45:17;;;;;;;1.70;1.37;;;18.20;99.90;;;;;;5035357;28;20504;-81
2023/06/20 02:47:59;;;;;;;1.97;1.87;;;18.00;99.90;;;;;;5035225;28;20833;-81
2023/06/20 02:50:32;;;;;;;2.13;1.77;;;18.10;99.90;;;;;;5034980;28;20435;-81
2023/06/20 02:53:07;;;;;;;3.50;2.20;;;18.10;99.90;;;;;;5035498;28;20435;-81
2023/06/20 02:55:38;;;;;;;1.63;1.53;;;18.10;99.90;;;;;;5034600;28;20442;-81
2023/06/20 02:58:12;;;;;;;8.23;2.80;;;18.10;99.90;;;;;;5034692;28;20497;-81
2023/06/20 03:00:41;;;;;;;2.43;2.13;;;18.10;99.90;;;;;;5035086;28;20439;-81
2023/06/20 03:03:12;;;;;;;2.00;1.47;;;18.10;99.90;;;;;;5035000;28;20454;-81
2023/06/20 03:05:43;;;;;;;1.83;1.67;;;18.10;99.90;;;;;;5034742;28;20907;-81
2023/06/20 03:08:11;;;;;;;3.17;2.00;;;18.10;99.90;;;;;;5034568;28;20467;-81
2023/06/20 03:10:38;;;;;;;5.10;2.63;;;18.00;99.90;;;;;;5034806;28;20455;-81
2023/06/20 03:13:05;;;;;;;4.47;2.23;;;18.00;99.90;;;;;;5034550;28;20443;-82
2023/06/20 03:15:32;;;;;;;2.57;1.50;;;18.00;99.90;;;;;;5034439;28;20965;-81
2023/06/20 03:18:00;;;;;;;4.83;2.03;;;18.00;99.90;;;;;;5034286;28;21032;-81
2023/06/20 03:20:28;;;;;;;4.60;2.37;;;18.00;99.90;;;;;;5034611;28;20457;-81
2023/06/20 03:22:55;;;;;;;3.80;2.07;;;18.00;99.90;;;;;;5034295;28;20454;-81
2023/06/20 03:25:21;;;;;;;4.10;2.53;;;18.00;99.90;;;;;;5034556;28;20448;-81
2023/06/20 03:27:48;;;;;;;4.07;2.13;;;18.00;99.90;;;;;;5034160;28;20494;-81
2023/06/20 03:30:16;;;;;;;1.53;1.30;;;18.00;99.90;;;;;;5034389;28;20447;-81
2023/06/20 03:32:42;;;;;;;3.33;1.80;;;17.90;99.90;;;;;;5034180;28;20442;-81
2023/06/20 03:35:09;;;;;;;2.60;1.93;;;17.90;99.90;;;;;;5034401;28;20451;-81
2023/06/20 03:37:37;;;;;;;2.93;1.67;;;17.90;99.90;;;;;;5034127;28;21004;-81
2023/06/20 03:40:05;;;;;;;3.60;1.80;;;17.90;99.90;;;;;;5033974;28;20455;-81
2023/06/20 03:42:32;;;;;;;4.07;1.67;;;17.80;99.90;;;;;;5034720;28;20474;-80
2023/06/20 03:44:59;;;;;;;1.50;1.20;;;17.80;99.90;;;;;;5034256;28;20841;-81
2023/06/20 03:47:26;;;;;;;1.83;1.53;;;17.70;99.90;;;;;;5033785;28;20994;-81
2023/06/20 03:49:53;;;;;;;1.70;1.50;;;17.70;99.90;;;;;;5034081;28;20454;-81
2023/06/20 03:52:19;;;;;;;2.00;1.80;;;17.60;99.90;;;;;;5033792;28;20447;-81
2023/06/20 03:54:47;;;;;;;1.87;1.30;;;17.70;99.90;;;;;;5033975;28;20469;-81
2023/06/20 03:57:14;;;;;;;2.03;1.83;;;17.70;99.90;;;;;;5033922;28;20494;-81
2023/06/20 03:59:41;;;;;;;2.23;1.63;;;17.70;99.90;;;;;;5033552;28;20832;-81
2023/06/20 04:02:08;;;;;;;2.00;1.20;;;17.70;99.90;;;;;;5033854;28;20781;-81
2023/06/20 04:04:34;;;;;;;1.70;1.20;;;17.70;99.90;;;;;;5033541;28;20814;-82
2023/06/20 04:07:01;;;;;;;3.03;1.40;;;17.70;99.90;;;;;;5032871;28;20498;-81
2023/06/20 04:09:28;;;;;;;1.50;1.40;;;17.70;99.90;;;;;;5033774;28;20538;-82
2023/06/20 04:11:56;;;;;;;1.67;1.57;;;17.70;99.90;;;;;;5033428;28;20951;-81
2023/06/20 04:14:23;;;;;;;1.60;1.50;;;17.80;99.90;;;;;;5033709;28;20447;-81
2023/06/20 04:16:50;;;;;;;2.13;1.50;;;17.80;99.90;;;;;;5033451;28;20462;-81
2023/06/20 04:19:17;;;;;;;5.33;2.03;;;17.80;99.90;;;;;;5033545;28;20482;-81
2023/06/20 04:21:44;;;;;;;1.93;1.77;;;17.90;99.90;;;;;;5033270;28;20873;-81
2023/06/20 04:24:11;;;;;;;2.30;1.97;;;18.10;99.90;;;;;;5033502;28;20450;-81
2023/06/20 04:26:37;;;;;;;2.50;1.83;;;18.10;99.90;;;;;;5033204;28;20491;-81
2023/06/20 04:29:05;;;;;;;2.30;1.40;;;18.20;99.90;;;;;;5033240;28;20430;-81
2023/06/20 04:31:33;;;;;;;5.20;1.80;;;18.20;99.90;;;;;;5033434;28;20485;-81
2023/06/20 04:33:59;;;;;;;2.57;2.37;;;18.20;99.90;;;;;;5033454;28;20451;-81
2023/06/20 04:36:26;;;;;;;2.90;1.37;;;18.20;99.90;;;;;;5033366;28;20435;-81
2023/06/20 04:38:53;;;;;;;2.53;1.60;;;18.30;99.90;;;;;;5033356;28;20493;-81
2023/06/20 04:41:20;;;;;;;3.53;1.27;;;18.30;99.90;;;;;;5033069;28;20454;-81
2023/06/20 04:43:47;;;;;;;1.53;1.43;;;18.40;99.90;;;;;;5032998;28;21001;-81
2023/06/20 04:46:15;;;;;;;1.30;1.20;;;18.40;99.90;;;;;;5033221;28;20450;-81
2023/06/20 04:48:44;;;;;;;2.90;1.60;;;18.40;99.90;;;;;;5033392;28;20490;-81
2023/06/20 04:51:11;;;;;;;3.90;1.63;;;18.50;99.90;;;;;;5032958;28;20439;-82
2023/06/20 04:53:38;;;;;;;1.30;1.10;;;18.50;99.90;;;;;;5033225;28;20482;-82
2023/06/20 04:56:06;;;;;;;3.10;1.37;;;18.60;99.90;;;;;;5033060;28;20451;-82
2023/06/20 04:58:32;;;;;;;3.90;2.40;;;18.70;99.90;;;;;;5033056;28;20482;-80
2023/06/20 05:01:00;;;;;;;3.40;1.17;;;18.70;99.90;;;;;;5033175;28;20447;-81
2023/06/20 05:03:28;;;;;;;1.90;1.40;;;18.70;99.90;;;;;;5033124;28;20450;-81
2023/06/20 05:05:55;;;;;;;2.33;2.13;;;18.70;99.90;;;;;;5032881;28;20434;-82
2023/06/20 05:08:22;;;;;;;1.30;1.20;;;18.80;99.90;;;;;;5032783;28;20463;-82
2023/06/20 05:10:48;;;;;;;1.60;1.50;;;18.80;99.90;;;;;;5033230;28;20449;-81
2023/06/20 05:13:15;;;;;;;3.50;1.83;;;18.90;99.90;;;;;;5033054;28;20858;-82
2023/06/20 05:15:42;;;;;;;3.23;2.10;;;18.90;99.90;;;;;;5032952;28;20454;-82
2023/06/20 05:18:09;;;;;;;2.17;1.70;;;18.90;99.90;;;;;;5035060;28;21024;-82
2023/06/20 05:20:37;;;;;;;1.60;1.50;;;19.00;99.90;;;;;;5036726;28;20451;-81
2023/06/20 05:23:03;;;;;;;1.40;1.30;;;19.00;99.90;;;;;;5036794;28;20455;-81
2023/06/20 05:25:31;;;;;;;2.33;1.80;;;18.90;99.90;;;;;;5036827;28;20454;-82
2023/06/20 05:27:58;;;;;;;1.67;1.27;;;18.80;99.90;;;;;;5036524;28;20474;-82
2023/06/20 05:30:25;;;;;;;2.73;1.73;;;18.90;99.90;;;;;;5036712;28;20461;-82
2023/06/20 05:32:51;;;;;;;1.53;1.20;;;18.90;99.90;;;;;;5036762;28;20450;-81
2023/06/20 05:35:18;;;;;;;1.73;1.63;;;19.00;99.90;;;;;;5036344;28;20820;-82
2023/06/20 05:37:49;;;;;;;4.33;1.57;;;19.00;99.90;;;;;;5036572;28;20466;-82
2023/06/20 05:40:16;;;;;;;2.03;1.47;;;19.10;99.90;;;;;;5036569;28;20500;-82
2023/06/20 05:42:43;;;;;;;3.70;2.23;;;19.00;99.90;;;;;;5036594;28;20454;-82
2023/06/20 05:45:10;;;;;;;5.33;2.30;;;18.90;99.90;;;;;;5036510;28;20447;-83
2023/06/20 05:47:37;;;;;;;3.37;1.80;;;19.00;99.90;;;;;;5036317;28;20481;-83
2023/06/20 05:50:04;;;;;;;3.53;2.50;;;18.90;99.90;;;;;;5036394;28;20448;-82
2023/06/20 05:52:31;;;;;;;2.70;2.03;;;19.10;99.90;;;;;;5036298;28;20448;-83
2023/06/20 05:54:59;;;;;;;3.50;2.07;;;19.20;99.90;;;;;;5036003;28;20823;-82
2023/06/20 05:57:26;;;;;;;4.90;2.00;;;19.30;99.90;;;;;;5035899;28;20805;-83
2023/06/20 05:59:53;;;;;;;2.03;1.83;;;19.50;99.90;;;;;;5035833;28;20485;-83
2023/06/20 06:02:21;;;;;;;1.70;1.60;;;19.70;99.90;;;;;;5036048;28;20450;-82
2023/06/20 06:04:48;;;;;;;3.77;2.00;;;19.80;99.90;;;;;;5036144;28;20867;-82
2023/06/20 06:07:15;;;;;;;2.23;1.60;;;19.80;99.90;;;;;;5035596;28;20848;-83
2023/06/20 06:09:42;;;;;;;3.10;2.10;;;19.90;99.90;;;;;;5035853;28;20442;-83
2023/06/20 06:12:11;;;;;;;2.80;1.73;;;20.00;99.90;;;;;;5036025;28;20817;-83
2023/06/20 06:14:38;;;;;;;3.83;2.53;;;20.20;99.90;;;;;;5035967;28;20446;-83
2023/06/20 06:17:05;;;;;;;2.07;1.87;;;20.30;99.90;;;;;;5035520;28;21002;-82
2023/06/20 06:19:32;;;;;;;2.37;1.77;;;20.50;99.90;;;;;;5035609;28;20470;-82
2023/06/20 06:21:59;;;;;;;3.60;2.00;;;20.70;99.90;;;;;;5035876;28;20434;-82
2023/06/20 06:24:25;;;;;;;6.40;2.40;;;21.00;99.90;;;;;;5035791;28;20457;-82
2023/06/20 06:26:52;;;;;;;2.33;2.07;;;21.20;99.90;;;;;;5035454;28;20474;-82
2023/06/20 06:29:20;;;;;;;4.57;2.43;;;21.50;99.90;;;;;;5034384;28;20910;-82
2023/06/20 06:31:47;;;;;;;3.10;1.80;;;21.70;99.90;;;;;;5035645;28;20876;-82
2023/06/20 06:34:17;;;;;;;1.93;1.83;;;21.90;99.90;;;;;;5035542;28;20199;-82
2023/06/20 06:36:48;;;;;;;2.22;1.58;;;22.30;99.90;;;;;;5035413;28;20589;-82
2023/06/20 06:39:17;;;;;;;2.95;2.05;;;22.60;99.90;;;;;;5035648;28;20258;-82
2023/06/20 06:41:45;;;;;;;2.35;1.67;;;22.90;99.90;;;;;;5035413;28;20207;-82
2023/06/20 06:44:12;;;;;;;4.72;2.38;;;23.10;99.90;;;;;;5035159;28;20203;-83
2023/06/20 06:46:40;;;;;;;1.88;1.73;;;23.40;99.90;;;;;;5034995;28;20219;-84
2023/06/20 06:49:08;;;;;;;2.50;2.17;;;23.50;99.90;;;;;;5035309;28;20199;-85
2023/06/20 06:51:35;;;;;;;2.88;2.15;;;23.40;99.90;;;;;;5035507;28;20199;-84
2023/06/20 06:54:01;;;;;;;4.00;2.10;;;23.30;99.90;;;;;;5034884;28;20701;-83
2023/06/20 06:56:28;;;;;;;2.17;2.05;;;23.50;99.90;;;;;;5035187;28;20199;-84
2023/06/20 06:58:57;;;;;;;2.63;2.05;;;23.50;99.90;;;;;;5034926;28;20219;-83
2023/06/20 07:01:24;;;;;;;4.00;2.10;;;23.60;99.90;;;;;;5035099;28;20207;-84
2023/06/20 07:03:52;;;;;;;4.35;1.73;;;23.80;99.90;;;;;;5035059;28;20203;-84
2023/06/20 07:06:19;;;;;;;2.25;1.75;;;23.90;99.90;;;;;;5034810;28;20207;-84
2023/06/20 07:08:46;;;;;;;5.85;1.92;;;24.00;99.90;;;;;;5034634;28;20207;-83
2023/06/20 07:11:13;;;;;;;2.47;1.80;;;24.00;99.90;;;;;;5034642;28;20235;-83
2023/06/20 07:13:40;;;;;;;2.85;1.80;;;24.00;99.90;;;;;;5034555;28;20729;-83
2023/06/20 07:16:08;;;;;;;3.53;2.00;;;24.20;99.90;;;;;;5034427;28;20215;-84
2023/06/20 07:18:34;;;;;;;2.55;2.13;;;24.30;99.90;;;;;;5034598;28;20277;-84
2023/06/20 07:21:04;;;;;;;3.45;1.67;;;24.10;99.90;;;;;;5034471;28;20206;-83
2023/06/20 07:23:32;;;;;;;4.20;2.08;;;24.00;99.90;;;;;;5034701;28;20191;-84
2023/06/20 07:25:59;;;;;;;1.83;1.73;;;24.20;99.90;;;;;;5034641;28;20261;-82
2023/06/20 07:28:28;;;;;;;2.50;2.30;;;24.30;99.90;;;;;;5034183;28;20239;-83
2023/06/20 07:30:54;;;;;;;2.33;2.00;;;24.60;99.90;;;;;;5034680;28;20230;-84
2023/06/20 07:33:21;;;;;;;2.67;1.63;;;24.70;99.90;;;;;;5034187;28;20208;-84
2023/06/20 07:35:48;;;;;;;3.80;2.58;;;24.80;99.90;;;;;;5034397;28;20203;-84
2023/06/20 07:38:16;;;;;;;2.28;2.08;;;24.90;99.90;;;;;;5034030;28;20583;-84
2023/06/20 07:40:43;;;;;;;2.72;2.53;;;24.90;99.90;;;;;;5033916;28;20281;-84
2023/06/20 07:43:09;;;;;;;2.45;2.10;;;25.00;99.90;;;;;;5034373;28;20206;-83
2023/06/20 07:45:37;;;;;;;2.25;2.00;;;25.10;99.90;;;;;;5034209;28;20207;-83
2023/06/20 07:48:04;;;;;;;2.03;1.77;;;25.20;99.90;;;;;;5034135;28;20596;-84
2023/06/20 07:50:31;;;;;;;3.97;2.17;;;25.20;99.90;;;;;;5033741;28;20582;-83
2023/06/20 07:52:57;;;;;;;2.42;1.75;;;25.40;99.90;;;;;;5034044;28;20207;-83
2023/06/20 07:55:25;;;;;;;3.00;1.83;;;25.40;99.90;;;;;;5033778;28;20211;-83
2023/06/20 07:57:55;;;;;;;2.10;2.00;;;25.50;99.90;;;;;;5033664;28;20221;-83
2023/06/20 08:00:24;;;;;;;2.10;1.90;;;25.40;99.90;;;;;;5033596;28;20215;-83
2023/06/20 08:02:51;;;;;;;2.05;1.95;;;25.60;99.90;;;;;;5033592;28;20689;-83
2023/06/20 08:05:17;;;;;;;3.10;2.10;;;25.60;99.90;;;;;;5033842;28;20199;-83
2023/06/20 08:07:44;;;;;;;2.38;1.90;;;25.80;99.90;;;;;;5033857;28;20219;-83
2023/06/20 08:10:11;;;;;;;2.13;1.90;;;26.10;99.90;;;;;;5033803;28;20202;-84
2023/06/20 08:12:40;;;;;;;3.78;1.85;;;26.30;99.90;;;;;;5033787;28;20203;-84
2023/06/20 08:15:08;;;;;;;1.83;1.73;;;26.40;99.90;;;;;;5034151;28;20229;-84
2023/06/20 08:17:35;;;;;;;2.58;1.98;;;26.30;99.90;;;;;;5033482;28;20216;-83
2023/06/20 08:20:06;;;;;;;2.65;1.88;;;26.80;99.90;;;;;;5033882;28;20262;-83
2023/06/20 08:22:32;;;;;;;3.60;1.88;;;27.50;99.90;;;;;;5034068;28;20693;-84
2023/06/20 08:24:59;;;;;;;2.05;1.95;;;27.80;99.90;;;;;;5033807;28;20217;-83
2023/06/20 08:27:26;;;;;;;2.08;1.98;;;28.60;99.90;;;;;;5033161;28;20317;-84
2023/06/20 08:29:54;;;;;;;2.65;1.70;;;29.00;99.90;;;;;;5033995;28;20534;-83
2023/06/20 08:32:21;;;;;;;5.45;2.63;;;29.30;99.90;;;;;;5033403;28;20202;-84
2023/06/20 08:34:49;;;;;;;2.20;1.75;;;29.40;99.90;;;;;;5033506;28;20204;-84
2023/06/20 08:37:17;;;;;;;3.05;2.33;;;29.10;99.90;;;;;;5033467;28;20569;-84
2023/06/20 08:39:44;;;;;;;1.85;1.75;;;29.20;99.90;;;;;;5033387;28;20262;-84
2023/06/20 08:42:11;;;;;;;1.80;1.70;;;29.00;99.90;;;;;;5033429;28;20296;-85
2023/06/20 08:44:38;;;;;;;2.45;2.25;;;29.00;99.90;;;;;;5033172;28;20226;-84
2023/06/20 08:47:07;;;;;;;1.77;1.67;;;29.00;99.90;;;;;;5033380;28;20231;-84
2023/06/20 08:49:34;;;;;;;2.65;2.00;;;29.00;99.90;;;;;;5033093;28;20571;-84
2023/06/20 08:52:09;;;;;;;2.13;1.98;;;28.90;99.90;;;;;;5035486;28;20230;-84
2023/06/20 08:54:39;;;;;;;1.75;1.65;;;29.30;99.90;;;;;;5039880;28;20192;-84
2023/06/20 08:57:07;;;;;;;2.15;2.05;;;29.70;99.90;;;;;;5040467;28;20321;-84
2023/06/20 08:59:35;;;;;;;2.08;1.80;;;30.10;99.90;;;;;;5039791;28;20217;-85
2023/06/20 09:02:01;;;;;;;1.67;1.58;;;30.20;99.90;;;;;;5039865;28;20235;-84
2023/06/20 09:04:30;;;;;;;1.80;1.70;;;29.90;99.90;;;;;;5040148;28;20215;-84
2023/06/20 09:06:57;;;;;;;2.00;1.90;;;29.90;99.90;;;;;;5039594;28;20604;-84
2023/06/20 09:09:24;;;;;;;2.42;1.83;;;29.90;99.90;;;;;;5039728;28;20226;-84
2023/06/20 09:11:56;;;;;;;1.98;1.88;;;29.70;99.90;;;;;;5039795;28;20220;-83
2023/06/20 09:14:26;;;;;;;1.67;1.58;;;29.40;99.90;;;;;;5040262;28;20310;-83
2023/06/20 09:16:52;;;;;;;1.58;1.48;;;29.10;99.90;;;;;;5039630;28;20234;-83
2023/06/20 09:19:19;;;;;;;1.50;1.40;;;29.00;99.90;;;;;;5039529;28;20210;-83
2023/06/20 09:21:47;;;;;;;4.55;1.88;;;28.90;99.90;;;;;;5039348;28;20204;-84
2023/06/20 09:24:19;;;;;;;4.75;2.22;;;28.70;99.90;;;;;;5039226;28;20682;-83
2023/06/20 09:26:47;;;;;;;2.72;1.80;;;28.30;99.90;;;;;;5039020;28;20706;-83
2023/06/20 09:29:15;;;;;;;1.65;1.55;;;28.40;99.90;;;;;;5039797;28;20189;-84
2023/06/20 09:31:48;;;;;;;1.73;1.63;;;28.40;99.90;;;;;;5039511;28;20208;-84
2023/06/20 09:34:16;;;;;;;3.22;2.13;;;28.60;99.90;;;;;;5040031;28;20217;-83
2023/06/20 09:36:43;;;;;;;3.47;2.38;;;28.70;99.90;;;;;;5039762;28;20259;-84
2023/06/20 09:39:15;;;;;;;2.35;2.08;;;28.80;99.90;;;;;;5039358;28;20216;-84
2023/06/20 09:41:45;;;;;;;2.53;1.83;;;29.00;99.90;;;;;;5039427;28;20187;-84
2023/06/20 09:44:13;;;;;;;2.25;1.60;;;29.10;99.90;;;;;;5039450;28;20190;-84
2023/06/20 09:46:40;;;;;;;2.22;2.00;;;29.00;99.90;;;;;;5039107;28;20267;-84
2023/06/20 09:49:07;;;;;;;1.52;1.42;;;29.10;99.90;;;;;;5039176;28;20210;-83
2023/06/20 09:51:35;;;;;;;2.88;2.08;;;29.10;99.90;;;;;;5039161;28;20211;-83
2023/06/20 09:54:05;;;;;;;1.88;1.77;;;29.10;99.90;;;;;;5039275;28;20229;-83
2023/06/20 09:56:41;;;;;;;2.08;1.98;;;29.10;99.90;;;;;;5039252;28;20220;-83
2023/06/20 09:59:10;;;;;;;2.25;2.05;;;28.90;99.90;;;;;;5039683;28;20212;-83
2023/06/20 10:01:39;;;;;;;3.15;2.08;;;28.90;99.90;;;;;;5039179;28;20326;-82
2023/06/20 10:04:07;;;;;;;2.03;1.92;;;28.90;99.90;;;;;;5037315;28;20211;-83
2023/06/20 10:06:37;;;;;;;1.83;1.73;;;29.00;99.90;;;;;;5038507;28;20192;-83
2023/06/20 10:09:05;;;;;;;1.50;1.40;;;29.10;99.90;;;;;;5036659;28;20264;-83
2023/06/20 10:11:34;;;;;;;2.03;1.85;;;29.00;99.90;;;;;;5035715;28;20207;-83
2023/06/20 10:14:02;;;;;;;2.22;2.13;;;29.00;99.90;;;;;;5035973;28;20205;-83
2023/06/20 10:16:29;;;;;;;1.77;1.60;;;29.10;99.90;;;;;;5035876;28;20215;-83
2023/06/20 10:18:56;;;;;;;2.25;2.00;;;29.20;99.90;;;;;;5036172;28;20200;-82
2023/06/20 10:21:53;;;;;;;1.55;1.45;;;29.20;99.90;;;;;;5035721;28;20568;-83
2023/06/20 10:24:20;;;;;;;1.35;1.25;;;29.20;99.90;;;;;;5036022;28;20219;-83
2023/06/20 10:26:53;;;;;;;2.53;1.80;;;29.30;99.90;;;;;;5035818;28;20234;-83
2023/06/20 10:29:21;;;;;;;2.67;1.95;;;29.40;99.90;;;;;;5035824;28;20198;-83
2023/06/20 10:32:02;;;;;;;2.08;1.98;;;29.40;99.90;;;;;;5036209;28;20213;-83
2023/06/20 10:34:30;;;;;;;2.25;1.27;;;29.60;99.90;;;;;;5041427;28;20206;-83
2023/06/20 10:37:10;;;;;;;1.98;1.27;;;29.60;99.90;;;;;;5035242;28;20732;-83
2023/06/20 10:39:37;;;;;;;2.33;2.13;;;29.60;99.90;;;;;;5035232;28;20192;-83
2023/06/20 10:42:09;;;;;;;2.50;2.30;;;29.70;99.90;;;;;;5035070;28;20212;-83
2023/06/20 10:44:35;;;;;;;1.92;1.73;;;29.80;99.90;;;;;;5035129;28;20583;-83
2023/06/20 10:47:03;;;;;;;4.43;2.17;;;29.80;98.60;;;;;;5035019;28;20235;-82
2023/06/20 10:49:30;;;;;;;2.55;2.20;;;29.90;98.80;;;;;;5035084;28;20205;-83
2023/06/20 10:51:57;;;;;;;1.70;1.60;;;29.80;98.50;;;;;;5035267;28;20216;-83
2023/06/20 10:54:33;;;;;;;4.43;2.00;;;29.90;98.30;;;;;;5035277;28;20557;-83
2023/06/20 10:57:00;;;;;;;2.15;1.40;;;29.90;96.90;;;;;;5035194;28;20224;-83
2023/06/20 10:59:28;;;;;;;1.50;1.40;;;30.00;96.30;;;;;;5034841;28;20676;-83
2023/06/20 11:01:56;;;;;;;1.73;1.63;;;30.10;94.80;;;;;;5035073;28;20596;-83
2023/06/20 11:04:24;;;;;;;1.77;1.60;;;30.20;94.80;;;;;;5034965;28;20558;-82
2023/06/20 11:06:51;;;;;;;1.70;1.60;;;30.60;95.20;;;;;;5034592;28;20219;-83
2023/06/20 11:09:18;;;;;;;2.20;2.00;;;31.10;93.70;;;;;;5034941;28;20573;-83
2023/06/20 11:11:45;;;;;;;2.13;1.92;;;31.40;92.60;;;;;;5034868;28;20226;-84
2023/06/20 11:14:12;;;;;;;3.38;1.80;;;31.30;90.90;;;;;;5034844;28;20215;-83
2023/06/20 11:16:41;;;;;;;1.77;1.40;;;31.00;91.00;;;;;;5034007;28;20771;-83
2023/06/20 11:19:08;;;;;;;1.80;1.70;;;30.70;91.40;;;;;;5034750;28;20240;-83
2023/06/20 11:21:34;;;;;;;1.55;1.45;;;30.50;92.80;;;;;;5034656;28;20226;-83
2023/06/20 11:24:02;;;;;;;2.58;1.77;;;30.50;93.10;;;;;;5034650;28;20597;-84
2023/06/20 11:26:29;;;;;;;1.90;1.80;;;30.40;91.70;;;;;;5034529;28;20212;-83
2023/06/20 11:28:59;;;;;;;2.28;1.73;;;30.30;92.20;;;;;;5034100;28;20231;-83
2023/06/20 11:31:26;;;;;;;2.45;2.10;;;30.30;92.90;;;;;;5034546;28;20253;-83
2023/06/20 11:34:04;;;;;;;2.42;2.15;;;30.20;92.40;;;;;;5034463;28;20210;-83
2023/06/20 11:36:32;;;;;;;2.05;1.95;;;30.10;93.10;;;;;;5034414;28;20195;-83
2023/06/20 11:38:59;;;;;;;1.83;1.73;;;30.20;93.80;;;;;;5034388;28;20226;-83
2023/06/20 11:41:31;;;;;;;3.08;1.98;;;30.10;93.60;;;;;;5034007;28;20227;-83
2023/06/20 11:43:58;;;;;;;3.00;2.42;;;30.10;94.00;;;;;;5034335;28;20616;-83
2023/06/20 11:46:25;;;;;;;2.33;2.05;;;30.10;93.90;;;;;;5034068;28;20199;-83
2023/06/20 11:48:53;;;;;;;2.17;1.98;;;30.20;93.60;;;;;;5034102;28;20203;-83
2023/06/20 11:51:23;;;;;;;2.58;2.15;;;30.20;93.60;;;;;;5033801;28;20682;-84
2023/06/20 11:54:01;;;;;;;2.92;2.58;;;30.20;94.40;;;;;;5034797;28;20536;-83
2023/06/20 11:56:28;;;;;;;1.98;1.88;;;30.20;93.40;;;;;;5034063;28;20232;-83
2023/06/20 11:58:55;;;;;;;2.88;1.80;;;30.20;93.40;;;;;;5034041;28;20221;-82
2023/06/20 12:01:24;;;;;;;2.20;2.08;;;30.20;92.90;;;;;;5033671;28;20236;-83
2023/06/20 12:04:03;;;;;;;2.28;2.08;;;30.20;93.00;;;;;;5033997;28;20296;-82
2023/06/20 12:06:33;;;;;;;3.17;2.05;;;30.10;92.50;;;;;;5033866;28;20192;-82
2023/06/20 12:09:01;;;;;;;2.20;2.05;;;30.20;92.40;;;;;;5033516;28;20679;-82
2023/06/20 12:11:28;;;;;;;2.20;2.00;;;30.30;91.80;;;;;;5033779;28;20217;-82
2023/06/20 12:13:56;;;;;;;2.67;1.90;;;30.30;91.80;;;;;;5033811;28;20280;-82
2023/06/20 12:16:24;;;;;;;2.83;2.63;;;30.30;92.40;;;;;;5033684;28;20298;-83
2023/06/20 12:18:52;;;;;;;2.42;2.22;;;30.20;92.90;;;;;;5033752;28;20209;-83
2023/06/20 12:21:19;;;;;;;2.67;2.53;;;30.00;92.30;;;;;;5033583;28;20278;-82
2023/06/20 12:23:47;;;;;;;2.55;2.35;;;30.00;92.20;;;;;;5033629;28;20209;-83
2023/06/20 12:26:14;;;;;;;2.20;2.03;;;30.00;92.20;;;;;;5033140;28;20212;-83
2023/06/20 12:28:41;;;;;;;2.08;1.98;;;29.90;91.60;;;;;;5033084;28;20282;-82
2023/06/20 12:31:09;;;;;;;2.55;2.33;;;29.80;90.80;;;;;;5033461;28;20254;-82
2023/06/20 12:33:35;;;;;;;3.42;2.17;;;29.70;91.40;;;;;;5033528;28;20216;-83
2023/06/20 12:36:02;;;;;;;4.15;2.42;;;29.80;91.70;;;;;;5033444;28;20210;-82
2023/06/20 12:38:30;;;;;;;2.30;2.20;;;29.70;91.30;;;;;;5033351;28;20228;-82
2023/06/20 12:40:59;;;;;;;2.20;2.10;;;29.60;91.50;;;;;;5033058;28;20230;-82
2023/06/20 12:43:25;;;;;;;2.50;2.30;;;29.50;91.30;;;;;;5033115;28;20680;-82
2023/06/20 12:45:53;;;;;;;2.80;2.42;;;29.50;91.90;;;;;;5033581;28;20211;-82
2023/06/20 12:48:20;;;;;;;3.25;2.60;;;29.60;91.80;;;;;;5033246;28;20243;-83
2023/06/20 12:50:46;;;;;;;2.72;2.53;;;29.60;91.00;;;;;;5033231;28;20220;-81
2023/06/20 12:53:13;;;;;;;2.83;1.80;;;29.60;90.40;;;;;;5033300;28;20207;-83